Time;durP1;ratioP1;P1;durP2;ratioP2;P2;SDS_P1;SDS_P2;PMS_P1;PMS_P2;Temp;Humidity;BMP_temperature;BMP_pressure;BME280_temperature;BME280_humidity;BME280_pressure;Samples;Min_cycle;Max_cycle;Signal;HPM_P1;HPM_P2
2022/05/12 00:00:49;;;;;;;4.47;2.90;;;25.50;45.40;;;;;;5003194;28;20154;-50
2022/05/12 00:03:16;;;;;;;3.83;2.45;;;25.50;45.30;;;;;;5003920;28;20548;-52
2022/05/12 00:05:46;;;;;;;3.13;2.10;;;25.60;45.30;;;;;;5005608;28;20030;-50
2022/05/12 00:08:12;;;;;;;3.70;2.42;;;25.50;45.30;;;;;;5005123;28;20037;-51
2022/05/12 00:10:40;;;;;;;2.90;2.10;;;25.50;45.30;;;;;;5005533;28;20076;-52
2022/05/12 00:13:07;;;;;;;3.03;2.20;;;25.50;45.20;;;;;;5004966;28;20633;-51
2022/05/12 00:15:34;;;;;;;3.53;2.28;;;25.50;45.90;;;;;;5005211;28;20058;-52
2022/05/12 00:18:04;;;;;;;5.10;3.00;;;25.50;45.20;;;;;;5004587;28;20052;-53
2022/05/12 00:20:32;;;;;;;3.25;2.42;;;25.50;45.20;;;;;;5003936;28;20018;-51
2022/05/12 00:23:13;;;;;;;3.50;2.40;;;25.50;45.20;;;;;;5004762;28;20033;-50
2022/05/12 00:25:40;;;;;;;3.70;2.78;;;25.50;45.30;;;;;;5003696;28;20025;-51
2022/05/12 00:28:06;;;;;;;3.20;2.30;;;25.50;45.40;;;;;;5004416;28;20136;-51
2022/05/12 00:30:32;;;;;;;3.17;2.28;;;25.50;45.40;;;;;;5004748;28;20026;-50
2022/05/12 00:32:58;;;;;;;4.03;2.50;;;25.50;45.40;;;;;;5004963;28;20022;-51
2022/05/12 00:35:24;;;;;;;3.88;2.80;;;25.40;45.30;;;;;;5004825;28;20018;-49
2022/05/12 00:37:49;;;;;;;3.50;2.55;;;25.50;45.40;;;;;;5004853;28;20034;-51
2022/05/12 00:40:16;;;;;;;4.38;2.15;;;25.50;45.40;;;;;;5004222;28;20112;-51
2022/05/12 00:43:03;;;;;;;4.25;2.67;;;25.40;45.40;;;;;;5003407;28;20800;-50
2022/05/12 00:45:32;;;;;;;3.38;2.50;;;25.40;45.50;;;;;;5003863;28;20092;-52
2022/05/12 00:47:58;;;;;;;4.00;2.58;;;25.40;45.40;;;;;;5004668;28;20558;-52
2022/05/12 00:50:31;;;;;;;3.30;2.30;;;25.40;45.30;;;;;;5004422;28;20026;-53
2022/05/12 00:53:00;;;;;;;3.50;2.35;;;25.40;45.30;;;;;;5004258;28;20041;-53
2022/05/12 00:55:34;;;;;;;3.40;2.30;;;25.40;45.30;;;;;;5003272;28;20030;-52
2022/05/12 00:58:02;;;;;;;3.58;2.40;;;25.40;45.30;;;;;;5002986;28;20026;-52
2022/05/12 01:00:28;;;;;;;3.47;2.40;;;25.40;45.30;;;;;;5004382;28;20045;-51
2022/05/12 01:02:56;;;;;;;3.35;2.40;;;25.40;45.30;;;;;;5004467;28;20452;-51
2022/05/12 01:05:24;;;;;;;3.47;2.50;;;25.40;45.20;;;;;;5004085;28;20037;-52
2022/05/12 01:07:51;;;;;;;3.83;2.25;;;25.40;45.30;;;;;;5003965;28;20029;-50
2022/05/12 01:10:18;;;;;;;3.70;2.60;;;25.40;45.30;;;;;;5002991;28;20045;-51
2022/05/12 01:12:48;;;;;;;3.03;2.20;;;25.40;45.40;;;;;;5004452;28;20052;-50
2022/05/12 01:15:15;;;;;;;3.25;2.42;;;25.40;45.30;;;;;;5002068;28;20069;-51
2022/05/12 01:17:41;;;;;;;4.75;2.20;;;25.40;45.40;;;;;;5004155;28;20053;-51
2022/05/12 01:20:07;;;;;;;3.70;2.58;;;25.30;45.30;;;;;;5004082;28;20026;-52
2022/05/12 01:22:36;;;;;;;3.90;2.78;;;25.30;45.30;;;;;;5004278;28;20033;-51
2022/05/12 01:25:17;;;;;;;3.28;2.33;;;25.30;45.30;;;;;;5003579;28;20063;-52
2022/05/12 01:27:43;;;;;;;3.80;2.40;;;25.30;45.30;;;;;;5003627;28;20579;-51
2022/05/12 01:30:12;;;;;;;3.58;2.50;;;25.30;45.30;;;;;;5003975;28;20030;-51
2022/05/12 01:32:38;;;;;;;3.65;2.55;;;25.30;45.30;;;;;;5003850;28;20026;-51
2022/05/12 01:35:06;;;;;;;3.35;2.33;;;25.30;45.30;;;;;;5004040;28;20018;-52
2022/05/12 01:37:32;;;;;;;3.35;2.47;;;25.30;45.30;;;;;;5003558;28;20057;-52
2022/05/12 01:39:57;;;;;;;3.55;2.45;;;25.30;45.30;;;;;;5003673;28;20030;-51
2022/05/12 01:42:23;;;;;;;3.20;2.33;;;25.30;45.30;;;;;;5003881;28;20109;-51
2022/05/12 01:44:49;;;;;;;3.40;2.38;;;25.30;45.40;;;;;;5003777;28;20025;-50
2022/05/12 01:47:15;;;;;;;3.10;2.28;;;25.30;45.30;;;;;;5003692;28;20514;-52
2022/05/12 01:49:41;;;;;;;3.38;2.53;;;25.30;45.40;;;;;;5003862;28;20063;-53
2022/05/12 01:52:08;;;;;;;3.60;2.70;;;25.30;45.30;;;;;;5003448;28;20507;-51
2022/05/12 01:54:34;;;;;;;3.60;2.63;;;25.30;45.30;;;;;;5003465;28;20113;-51
2022/05/12 01:56:59;;;;;;;3.55;2.53;;;25.20;45.30;;;;;;5003294;28;20030;-53
2022/05/12 01:59:25;;;;;;;3.25;2.28;;;25.30;45.30;;;;;;5003977;28;20033;-50
2022/05/12 02:01:52;;;;;;;3.83;2.70;;;25.30;45.30;;;;;;5003946;28;20022;-51
2022/05/12 02:04:19;;;;;;;4.38;2.72;;;25.30;45.30;;;;;;5004027;28;20027;-50
2022/05/12 02:06:45;;;;;;;3.95;2.80;;;25.30;45.40;;;;;;5004163;28;20073;-52
2022/05/12 02:09:11;;;;;;;3.50;2.60;;;25.20;45.40;;;;;;5004080;28;20057;-52
2022/05/12 02:11:38;;;;;;;3.15;2.28;;;25.20;45.30;;;;;;5004638;28;20057;-50
2022/05/12 02:14:05;;;;;;;3.58;2.58;;;25.20;45.40;;;;;;5004409;28;20068;-51
2022/05/12 02:16:35;;;;;;;3.63;2.35;;;25.20;45.30;;;;;;5003829;28;20079;-51
2022/05/12 02:19:02;;;;;;;4.07;2.35;;;25.20;45.30;;;;;;5003801;28;20049;-51
2022/05/12 02:21:28;;;;;;;3.50;2.53;;;25.20;45.40;;;;;;5003872;28;20049;-51
2022/05/12 02:23:54;;;;;;;3.50;2.60;;;25.20;45.30;;;;;;5003817;28;20654;-51
2022/05/12 02:26:19;;;;;;;3.50;2.75;;;25.20;45.30;;;;;;5005565;28;20031;-50
2022/05/12 02:28:45;;;;;;;4.15;2.47;;;25.20;45.30;;;;;;5006843;28;20067;-50
2022/05/12 02:31:11;;;;;;;4.63;2.25;;;25.20;45.30;;;;;;5007619;28;20658;-51
2022/05/12 02:33:38;;;;;;;3.72;2.47;;;25.20;45.30;;;;;;5006313;28;20018;-51
2022/05/12 02:36:05;;;;;;;3.35;2.35;;;25.20;45.30;;;;;;5007344;28;20022;-51
2022/05/12 02:38:30;;;;;;;3.47;2.50;;;25.20;45.30;;;;;;5006748;28;20022;-52
2022/05/12 02:40:56;;;;;;;3.40;2.50;;;25.20;45.30;;;;;;5007281;28;20022;-50
2022/05/12 02:43:25;;;;;;;3.65;2.50;;;25.20;45.30;;;;;;5005931;28;20029;-49
2022/05/12 02:45:55;;;;;;;4.45;2.65;;;25.10;45.30;;;;;;5007311;28;20026;-52
2022/05/12 02:48:23;;;;;;;3.90;2.70;;;25.20;45.30;;;;;;5006870;28;20324;-50
2022/05/12 02:50:49;;;;;;;4.07;2.65;;;25.20;44.90;;;;;;5007223;28;20096;-50
2022/05/12 02:53:15;;;;;;;3.35;2.42;;;25.10;45.30;;;;;;5006901;28;20026;-52
2022/05/12 02:55:41;;;;;;;3.20;2.33;;;25.20;45.20;;;;;;5006977;28;20018;-52
2022/05/12 02:58:07;;;;;;;3.80;2.63;;;25.10;45.20;;;;;;5006418;28;20477;-50
2022/05/12 03:00:33;;;;;;;3.60;2.90;;;25.10;45.20;;;;;;5006465;28;20169;-52
2022/05/12 03:03:00;;;;;;;3.40;2.75;;;25.20;45.20;;;;;;5006672;28;20112;-51
2022/05/12 03:05:27;;;;;;;4.10;2.85;;;25.20;45.20;;;;;;5006964;28;20037;-51
2022/05/12 03:07:53;;;;;;;3.08;2.10;;;25.10;45.20;;;;;;5006474;28;20053;-53
2022/05/12 03:10:20;;;;;;;3.80;2.72;;;25.10;45.20;;;;;;5005274;28;20511;-52
2022/05/12 03:12:46;;;;;;;4.00;2.75;;;25.10;45.10;;;;;;5006824;28;20187;-50
2022/05/12 03:15:12;;;;;;;3.40;2.70;;;25.10;45.10;;;;;;5005675;28;20753;-51
2022/05/12 03:17:39;;;;;;;3.97;2.75;;;25.10;45.10;;;;;;5005769;28;20156;-50
2022/05/12 03:20:09;;;;;;;3.63;2.70;;;25.10;45.10;;;;;;5006436;28;20505;-52
2022/05/12 03:22:36;;;;;;;3.45;2.60;;;25.10;45.10;;;;;;5006730;28;20541;-51
2022/05/12 03:25:04;;;;;;;3.60;2.67;;;25.10;45.10;;;;;;5006147;28;20038;-52
2022/05/12 03:27:30;;;;;;;3.50;2.60;;;25.10;45.20;;;;;;5006556;28;20033;-51
2022/05/12 03:29:56;;;;;;;4.72;3.15;;;25.10;45.10;;;;;;5006041;28;20030;-51
2022/05/12 03:32:23;;;;;;;3.67;2.75;;;25.10;45.10;;;;;;5006168;28;20057;-51
2022/05/12 03:34:49;;;;;;;3.85;2.70;;;25.10;45.10;;;;;;5006159;28;20025;-52
2022/05/12 03:37:17;;;;;;;3.20;2.63;;;25.10;45.10;;;;;;5005589;28;20022;-52
2022/05/12 03:39:43;;;;;;;3.50;2.40;;;25.10;45.10;;;;;;5005502;28;20101;-51
2022/05/12 03:42:12;;;;;;;3.45;2.60;;;25.10;45.10;;;;;;5006645;28;20029;-52
2022/05/12 03:44:47;;;;;;;4.00;2.67;;;25.10;45.10;;;;;;5006118;28;20586;-51
2022/05/12 03:47:14;;;;;;;3.88;2.53;;;25.10;45.10;;;;;;5005922;28;20034;-51
2022/05/12 03:49:41;;;;;;;3.38;2.40;;;25.10;45.00;;;;;;5006207;28;20026;-52
2022/05/12 03:52:07;;;;;;;4.07;2.60;;;25.00;45.10;;;;;;5005823;28;20068;-51
2022/05/12 03:54:34;;;;;;;3.30;2.30;;;25.00;45.00;;;;;;5005559;28;20139;-52
2022/05/12 03:57:01;;;;;;;3.40;2.50;;;25.00;45.10;;;;;;5005290;28;20259;-52
2022/05/12 03:59:26;;;;;;;3.90;2.88;;;25.00;45.10;;;;;;5005743;28;20159;-52
2022/05/12 04:01:52;;;;;;;4.25;3.05;;;25.00;45.10;;;;;;5005337;28;20545;-51
2022/05/12 04:04:18;;;;;;;4.15;2.60;;;25.00;45.00;;;;;;5005842;28;20461;-50
2022/05/12 04:06:43;;;;;;;3.67;2.70;;;25.00;45.10;;;;;;5005272;28;20022;-52
2022/05/12 04:09:10;;;;;;;3.70;2.72;;;25.00;45.10;;;;;;5005717;28;20041;-51
2022/05/12 04:11:35;;;;;;;3.80;2.90;;;25.00;45.10;;;;;;5005173;28;20623;-53
2022/05/12 04:14:01;;;;;;;3.45;2.45;;;25.00;45.10;;;;;;5003702;28;20574;-50
2022/05/12 04:16:27;;;;;;;3.63;2.75;;;25.00;45.10;;;;;;5005027;28;20018;-52
2022/05/12 04:18:53;;;;;;;3.83;2.65;;;25.00;45.10;;;;;;5005181;28;20040;-51
2022/05/12 04:21:18;;;;;;;5.68;2.70;;;25.00;45.10;;;;;;5005639;28;20148;-51
2022/05/12 04:23:44;;;;;;;4.10;2.92;;;25.00;45.10;;;;;;5005468;28;20112;-53
2022/05/12 04:26:10;;;;;;;3.60;2.70;;;25.00;45.10;;;;;;5004767;28;20104;-52
2022/05/12 04:28:37;;;;;;;3.67;2.83;;;25.00;45.10;;;;;;5004476;28;21293;-53
2022/05/12 04:31:03;;;;;;;3.78;2.90;;;25.00;45.10;;;;;;5005222;28;20021;-52
2022/05/12 04:36:14;;;;;;;3.28;2.40;;;25.00;45.10;;;;;;5002957;28;20022;-50
2022/05/12 04:38:40;;;;;;;4.13;3.10;;;25.00;45.10;;;;;;5004129;28;20430;-50
2022/05/12 04:41:07;;;;;;;4.00;2.60;;;25.00;45.10;;;;;;5004766;28;20045;-51
2022/05/12 04:43:34;;;;;;;3.92;2.85;;;25.00;45.10;;;;;;5004567;28;20033;-50
2022/05/12 04:45:59;;;;;;;4.60;2.80;;;25.00;45.10;;;;;;5004473;28;20414;-53
2022/05/12 04:48:26;;;;;;;3.80;2.67;;;25.00;45.10;;;;;;5002392;28;20045;-51
2022/05/12 04:50:52;;;;;;;3.70;2.65;;;25.00;45.80;;;;;;5003727;28;20402;-52
2022/05/12 04:53:18;;;;;;;3.97;2.85;;;25.00;45.10;;;;;;5003917;28;20040;-50
2022/05/12 04:55:45;;;;;;;4.40;2.80;;;25.00;45.20;;;;;;5003706;28;20030;-51
2022/05/12 04:58:11;;;;;;;4.05;3.03;;;25.00;45.20;;;;;;5004241;28;20044;-51
2022/05/12 05:00:40;;;;;;;3.72;2.83;;;25.00;45.20;;;;;;5004170;28;20049;-52
2022/05/12 05:03:08;;;;;;;4.38;2.70;;;25.00;45.20;;;;;;5002563;28;20030;-52
2022/05/12 05:05:34;;;;;;;4.10;2.85;;;25.00;45.20;;;;;;5018163;28;20060;-51
2022/05/12 05:08:01;;;;;;;4.30;3.13;;;25.00;45.20;;;;;;4995697;28;20022;-52
2022/05/12 05:10:27;;;;;;;4.03;2.55;;;25.00;45.50;;;;;;4999233;28;20046;-49
2022/05/12 05:12:53;;;;;;;3.80;2.50;;;25.00;45.50;;;;;;5003164;28;20025;-54
2022/05/12 05:15:20;;;;;;;4.45;2.60;;;25.00;45.70;;;;;;5002873;28;20037;-50
2022/05/12 05:17:46;;;;;;;4.22;3.03;;;25.00;45.80;;;;;;5002857;28;20425;-50
2022/05/12 05:20:17;;;;;;;4.32;2.97;;;25.00;46.00;;;;;;5003029;28;20065;-51
2022/05/12 05:22:43;;;;;;;4.25;2.92;;;25.00;46.00;;;;;;5002496;28;20112;-51
2022/05/12 05:25:10;;;;;;;5.43;3.30;;;25.00;46.10;;;;;;5002571;28;20038;-51
2022/05/12 05:27:37;;;;;;;4.43;3.20;;;25.00;46.20;;;;;;5002599;28;20034;-50
2022/05/12 05:30:05;;;;;;;4.65;3.25;;;25.00;46.10;;;;;;5003058;28;20037;-51
2022/05/12 05:32:31;;;;;;;3.65;2.88;;;25.00;46.10;;;;;;5003511;28;20544;-48
2022/05/12 05:34:56;;;;;;;3.80;2.88;;;25.00;46.10;;;;;;5004734;28;20055;-50
2022/05/12 05:37:22;;;;;;;4.63;3.00;;;25.00;47.00;;;;;;5002764;28;20025;-49
2022/05/12 05:39:49;;;;;;;4.28;3.15;;;25.00;47.60;;;;;;5002827;28;20034;-49
2022/05/12 05:42:16;;;;;;;4.28;3.00;;;25.00;48.20;;;;;;5003451;28;20497;-52
2022/05/12 05:44:42;;;;;;;5.68;3.10;;;25.00;48.40;;;;;;5002640;28;20501;-52
2022/05/12 05:47:09;;;;;;;4.60;3.10;;;25.10;48.40;;;;;;5002304;28;20033;-51
2022/05/12 05:49:36;;;;;;;5.55;3.13;;;25.10;48.40;;;;;;4998534;28;20860;-50
2022/05/12 05:54:47;;;;;;;4.28;3.08;;;25.10;48.20;;;;;;5001586;28;20587;-51
2022/05/12 05:57:13;;;;;;;4.80;3.08;;;25.20;48.40;;;;;;5000704;28;20026;-52
2022/05/12 05:59:38;;;;;;;3.95;2.90;;;25.10;48.50;;;;;;5018497;28;20164;-51
2022/05/12 06:02:06;;;;;;;5.63;3.03;;;25.20;48.30;;;;;;5007908;28;20022;-52
2022/05/12 06:04:31;;;;;;;3.90;2.75;;;25.20;48.40;;;;;;5008290;28;20036;-47
2022/05/12 06:06:57;;;;;;;4.35;3.17;;;25.20;48.50;;;;;;5008042;28;20445;-51
2022/05/12 06:09:24;;;;;;;5.15;3.50;;;25.20;48.40;;;;;;5007315;28;20489;-53
2022/05/12 06:11:49;;;;;;;4.03;2.92;;;25.30;48.40;;;;;;5007232;28;20117;-55
2022/05/12 06:14:15;;;;;;;4.00;2.90;;;25.30;48.00;;;;;;5007355;28;20538;-54
2022/05/12 06:16:42;;;;;;;3.88;3.13;;;25.30;47.60;;;;;;5006281;28;20087;-55
2022/05/12 06:19:07;;;;;;;4.55;3.00;;;25.30;47.30;;;;;;5006461;28;20021;-55
2022/05/12 06:21:37;;;;;;;4.70;2.65;;;25.30;47.20;;;;;;5006552;28;20040;-56
2022/05/12 06:24:03;;;;;;;3.63;2.70;;;25.30;47.10;;;;;;5006847;28;20038;-55
2022/05/12 06:26:29;;;;;;;4.10;2.88;;;25.30;46.90;;;;;;5006329;28;20025;-55
2022/05/12 06:28:56;;;;;;;4.25;3.20;;;25.30;46.80;;;;;;5006408;28;20037;-56
2022/05/12 06:31:29;;;;;;;3.53;2.58;;;25.30;46.80;;;;;;5005749;28;20576;-53
2022/05/12 06:33:56;;;;;;;4.00;2.67;;;25.30;46.70;;;;;;5006698;28;20026;-54
2022/05/12 06:36:22;;;;;;;4.35;2.95;;;25.30;47.20;;;;;;5009725;28;20040;-55
2022/05/12 06:38:49;;;;;;;5.20;2.85;;;25.30;47.00;;;;;;5009054;28;20478;-54
2022/05/12 06:41:15;;;;;;;4.93;2.97;;;25.30;47.00;;;;;;5007374;28;20433;-55
2022/05/12 06:43:45;;;;;;;3.72;2.67;;;25.30;46.90;;;;;;5007176;28;20030;-54
2022/05/12 06:46:15;;;;;;;3.92;2.80;;;25.30;46.90;;;;;;5007714;28;20026;-54
2022/05/12 06:48:42;;;;;;;4.75;3.22;;;25.30;47.10;;;;;;5007073;28;20026;-54
2022/05/12 06:51:09;;;;;;;3.92;3.08;;;25.30;47.10;;;;;;5006285;28;20553;-54
2022/05/12 06:53:34;;;;;;;4.15;2.97;;;25.30;47.10;;;;;;5004917;28;20564;-55
2022/05/12 06:56:00;;;;;;;4.88;3.33;;;25.30;46.90;;;;;;5005640;28;20058;-55
2022/05/12 06:58:26;;;;;;;3.83;2.72;;;25.30;47.00;;;;;;5006175;28;20032;-55
2022/05/12 07:00:51;;;;;;;4.13;2.80;;;25.30;46.90;;;;;;5001077;28;20026;-54
2022/05/12 07:03:19;;;;;;;4.10;2.72;;;25.30;46.90;;;;;;5004617;28;20397;-55
2022/05/12 07:05:45;;;;;;;4.60;2.58;;;25.30;46.80;;;;;;5004828;28;20121;-53
2022/05/12 07:08:11;;;;;;;4.65;2.65;;;25.30;46.80;;;;;;5006294;28;20446;-55
2022/05/12 07:10:38;;;;;;;3.90;2.55;;;25.30;46.70;;;;;;5008123;28;20026;-57
2022/05/12 07:13:04;;;;;;;3.65;2.45;;;25.30;46.60;;;;;;5006359;28;20133;-55
2022/05/12 07:15:30;;;;;;;3.45;2.50;;;25.30;46.60;;;;;;5006692;28;20096;-56
2022/05/12 07:17:57;;;;;;;3.88;2.70;;;25.30;46.80;;;;;;5006397;28;20076;-54
2022/05/12 07:28:40;;;;;;;4.28;2.50;;;25.30;46.80;;;;;;5006201;28;20040;-57
2022/05/12 07:31:09;;;;;;;3.95;2.38;;;25.30;46.80;;;;;;5004680;28;20034;-54
2022/05/12 07:33:41;;;;;;;4.72;2.72;;;25.30;46.90;;;;;;5006694;28;20041;-56
2022/05/12 07:36:13;;;;;;;3.05;2.05;;;25.30;47.30;;;;;;5006029;28;20456;-55
2022/05/12 07:38:40;;;;;;;3.47;2.60;;;25.30;47.90;;;;;;5005206;28;20034;-54
2022/05/12 07:41:07;;;;;;;4.95;2.90;;;25.30;48.00;;;;;;5005734;28;20099;-54
2022/05/12 07:43:33;;;;;;;4.97;2.20;;;25.30;47.90;;;;;;5006058;28;20034;-54
2022/05/12 07:46:00;;;;;;;3.55;2.30;;;25.30;47.80;;;;;;5005986;28;20025;-56
2022/05/12 07:48:25;;;;;;;4.18;2.90;;;25.30;48.60;;;;;;5005847;28;20069;-54
2022/05/12 07:50:51;;;;;;;3.60;2.70;;;25.30;48.50;;;;;;5006377;28;20151;-54
2022/05/12 07:53:17;;;;;;;3.83;2.53;;;25.30;47.80;;;;;;5005716;28;20069;-55
2022/05/12 07:55:42;;;;;;;3.70;2.70;;;25.30;47.70;;;;;;5005086;28;20395;-54
2022/05/12 07:58:11;;;;;;;3.30;2.03;;;25.30;47.60;;;;;;5004868;28;20303;-53
2022/05/12 08:00:37;;;;;;;3.92;2.38;;;25.30;47.60;;;;;;5005948;28;20445;-54
2022/05/12 08:03:03;;;;;;;4.05;2.20;;;25.30;47.60;;;;;;5006194;28;20041;-55
2022/05/12 08:05:29;;;;;;;3.53;2.38;;;25.30;47.60;;;;;;5002692;28;20045;-55
2022/05/12 08:07:55;;;;;;;3.65;2.47;;;25.30;47.60;;;;;;5005038;28;20030;-54
2022/05/12 08:10:22;;;;;;;3.97;3.03;;;25.30;47.60;;;;;;5005556;28;20040;-55
2022/05/12 08:12:49;;;;;;;3.78;2.30;;;25.40;47.60;;;;;;5005370;28;20382;-55
2022/05/12 08:15:15;;;;;;;3.88;2.63;;;25.30;47.50;;;;;;5005065;28;20036;-54
2022/05/12 08:17:41;;;;;;;3.00;2.10;;;25.30;47.50;;;;;;5005324;28;20030;-53
2022/05/12 08:20:09;;;;;;;3.30;2.15;;;25.40;47.50;;;;;;5005619;28;20033;-52
2022/05/12 08:22:35;;;;;;;4.50;2.45;;;25.40;47.60;;;;;;5005335;28;20038;-52
2022/05/12 08:25:00;;;;;;;4.05;2.33;;;25.40;47.50;;;;;;5005302;28;20060;-52
2022/05/12 08:27:26;;;;;;;3.47;2.28;;;25.40;47.50;;;;;;5005033;28;20128;-53
2022/05/12 08:29:52;;;;;;;3.30;2.30;;;25.40;47.50;;;;;;5004812;28;20034;-52
2022/05/12 08:32:19;;;;;;;3.53;2.30;;;25.40;47.50;;;;;;5005398;28;20102;-54
2022/05/12 08:34:45;;;;;;;3.63;2.10;;;25.40;47.50;;;;;;5005306;28;20666;-51
2022/05/12 08:37:11;;;;;;;3.40;2.20;;;25.40;47.40;;;;;;5004901;28;20030;-53
2022/05/12 08:39:38;;;;;;;3.67;2.08;;;25.40;47.50;;;;;;5005402;28;20033;-53
2022/05/12 08:42:25;;;;;;;3.95;2.33;;;25.40;47.50;;;;;;5005518;28;20444;-53
2022/05/12 08:44:51;;;;;;;3.58;2.15;;;25.40;47.30;;;;;;5005389;28;20029;-52
2022/05/12 08:47:22;;;;;;;3.50;2.33;;;25.40;47.50;;;;;;5004957;28;20042;-51
2022/05/12 08:49:50;;;;;;;3.38;2.28;;;25.40;47.50;;;;;;5004606;28;20116;-53
2022/05/12 08:52:47;;;;;;;3.80;1.95;;;25.40;47.40;;;;;;5001953;28;20042;-51
2022/05/12 08:55:34;;;;;;;4.30;1.92;;;25.40;47.40;;;;;;4992076;28;20658;-55
2022/05/12 08:58:09;;;;;;;2.85;2.05;;;25.40;47.40;;;;;;5002404;28;20018;-54
2022/05/12 09:00:44;;;;;;;4.85;2.20;;;25.40;47.40;;;;;;5003075;28;20125;-54
2022/05/12 09:03:40;;;;;;;3.30;2.00;;;25.40;47.30;;;;;;5004832;28;20196;-55
2022/05/12 09:06:15;;;;;;;2.78;1.67;;;25.40;47.30;;;;;;5005303;28;20030;-54
2022/05/12 09:09:23;;;;;;;4.00;1.95;;;25.40;47.20;;;;;;5004383;28;20133;-55
2022/05/12 09:12:13;;;;;;;3.40;2.08;;;25.40;47.20;;;;;;5000068;28;20057;-54
2022/05/12 09:15:10;;;;;;;4.10;2.58;;;25.40;47.20;;;;;;4994485;28;20057;-53
2022/05/12 09:17:58;;;;;;;3.10;2.00;;;25.40;47.60;;;;;;4999269;28;20121;-54
2022/05/12 09:20:27;;;;;;;3.40;2.00;;;25.40;48.00;;;;;;5016385;28;20034;-55
2022/05/12 09:22:53;;;;;;;3.28;2.10;;;25.40;48.20;;;;;;5001086;28;20029;-54
2022/05/12 09:25:41;;;;;;;4.22;2.30;;;25.40;48.20;;;;;;4989277;28;20030;-57
2022/05/12 09:28:33;;;;;;;3.13;2.22;;;25.50;48.20;;;;;;4983881;28;20027;-55
2022/05/12 09:31:19;;;;;;;2.95;1.80;;;25.50;48.30;;;;;;5002369;28;20040;-56
2022/05/12 09:33:54;;;;;;;3.25;2.03;;;25.50;48.30;;;;;;5004186;28;20037;-55
2022/05/12 09:36:27;;;;;;;3.50;2.08;;;25.60;48.30;;;;;;5003330;28;20022;-54
2022/05/12 09:38:55;;;;;;;3.38;2.15;;;25.50;48.20;;;;;;5003310;28;20173;-54
2022/05/12 09:41:39;;;;;;;3.22;2.20;;;25.60;48.20;;;;;;5003146;28;20026;-55
2022/05/12 09:44:27;;;;;;;3.33;2.08;;;25.60;47.60;;;;;;5004086;28;20030;-53
2022/05/12 09:47:02;;;;;;;3.30;2.08;;;25.60;48.10;;;;;;5002478;28;20053;-57
2022/05/12 09:49:38;;;;;;;3.65;2.10;;;25.70;48.10;;;;;;5003896;28;20034;-55
2022/05/12 09:52:22;;;;;;;3.58;1.98;;;25.70;48.10;;;;;;5018998;28;20018;-55
2022/05/12 09:54:48;;;;;;;2.80;1.92;;;25.70;48.10;;;;;;5003342;28;20517;-55
2022/05/12 09:57:25;;;;;;;3.38;2.38;;;25.70;48.20;;;;;;5003622;28;20030;-54
2022/05/12 09:59:57;;;;;;;4.53;2.47;;;25.70;48.20;;;;;;5003868;28;20520;-55
2022/05/12 10:07:53;;;;;;;3.33;2.10;;;25.70;48.10;;;;;;5004029;28;20044;-55
2022/05/12 10:08:27;;;;;;;2.97;2.15;;;25.80;48.10;;;;;;4999623;28;20041;-54
2022/05/12 10:11:02;;;;;;;3.00;1.98;;;25.80;48.10;;;;;;5002908;28;20398;-55
2022/05/12 10:13:48;;;;;;;2.90;2.00;;;25.80;48.10;;;;;;5003246;28;20196;-57
2022/05/12 10:16:18;;;;;;;2.97;2.00;;;25.80;48.00;;;;;;5003573;28;20566;-56
2022/05/12 10:18:47;;;;;;;2.95;1.90;;;25.80;48.00;;;;;;5003391;28;20421;-54
2022/05/12 10:21:20;;;;;;;3.10;1.92;;;25.80;48.00;;;;;;5003189;28;20030;-55
2022/05/12 10:24:27;;;;;;;3.72;2.85;;;25.80;48.00;;;;;;4997107;28;20156;-54
2022/05/12 10:27:06;;;;;;;4.22;2.53;;;25.90;48.30;;;;;;4996931;28;20030;-56
2022/05/12 10:29:58;;;;;;;3.90;2.90;;;25.90;48.70;;;;;;4993004;28;20029;-56
2022/05/12 10:33:00;;;;;;;3.80;2.28;;;25.90;47.80;;;;;;4996752;28;20025;-54
2022/05/12 10:36:08;;;;;;;3.63;2.17;;;25.90;47.60;;;;;;4997556;28;20497;-57
2022/05/12 10:39:18;;;;;;;3.78;2.10;;;25.90;47.40;;;;;;4967883;28;20457;-58
2022/05/12 10:41:59;;;;;;;3.33;2.10;;;26.00;47.70;;;;;;4998852;28;20037;-55
2022/05/12 10:44:55;;;;;;;3.45;2.28;;;26.00;47.60;;;;;;4998812;28;20034;-54
2022/05/12 10:47:26;;;;;;;3.50;2.15;;;26.00;47.60;;;;;;4999027;28;20026;-55
2022/05/12 10:50:19;;;;;;;3.00;1.92;;;26.00;47.40;;;;;;5000785;28;20582;-57
2022/05/12 10:52:47;;;;;;;3.00;2.00;;;26.00;47.30;;;;;;4992469;28;20052;-55
2022/05/12 10:55:50;;;;;;;3.45;1.92;;;26.00;47.10;;;;;;5005312;28;20490;-57
2022/05/12 10:58:34;;;;;;;3.22;2.00;;;26.00;47.00;;;;;;4999534;28;20283;-57
2022/05/12 11:01:22;;;;;;;3.13;2.10;;;26.00;46.80;;;;;;4990867;28;20422;-54
2022/05/12 11:04:08;;;;;;;3.35;1.83;;;26.00;46.90;;;;;;5006075;28;20097;-55
2022/05/12 11:06:41;;;;;;;3.42;2.33;;;26.00;46.80;;;;;;5006525;28;20044;-55
2022/05/12 11:09:41;;;;;;;4.32;2.50;;;26.00;46.80;;;;;;5006536;28;20564;-55
2022/05/12 11:12:31;;;;;;;2.72;1.48;;;26.00;46.80;;;;;;5001044;28;20115;-54
2022/05/12 11:15:10;;;;;;;3.25;2.08;;;26.00;46.80;;;;;;5006477;28;20034;-55
2022/05/12 11:17:55;;;;;;;2.80;1.80;;;26.00;46.70;;;;;;5005764;28;20065;-54
2022/05/12 11:20:42;;;;;;;2.78;1.70;;;26.00;46.70;;;;;;5005599;28;20057;-55
2022/05/12 11:23:28;;;;;;;3.92;1.90;;;26.00;46.70;;;;;;5004137;28;20029;-54
2022/05/12 11:26:34;;;;;;;2.65;1.65;;;26.00;46.70;;;;;;5004831;28;20041;-54
2022/05/12 11:29:43;;;;;;;2.97;1.85;;;26.00;46.60;;;;;;4990193;28;20049;-57
2022/05/12 11:32:27;;;;;;;3.15;1.77;;;26.00;46.50;;;;;;5005829;28;20030;-55
2022/05/12 11:34:58;;;;;;;2.88;1.85;;;26.00;46.40;;;;;;5005917;28;20431;-53
2022/05/12 11:37:35;;;;;;;3.15;1.88;;;26.00;46.20;;;;;;5006127;28;20401;-56
2022/05/12 11:40:11;;;;;;;2.95;1.77;;;26.00;46.20;;;;;;5005583;28;20057;-56
2022/05/12 11:46:41;;;;;;;2.50;1.60;;;26.00;46.00;;;;;;5006152;28;20703;-55
2022/05/12 11:49:35;;;;;;;2.63;1.80;;;26.00;46.10;;;;;;5005829;28;20398;-56
2022/05/12 11:52:07;;;;;;;3.90;2.03;;;26.00;46.30;;;;;;5005717;28;20026;-55
2022/05/12 11:54:49;;;;;;;3.45;2.00;;;26.00;46.30;;;;;;5005792;28;20033;-55
2022/05/12 11:57:32;;;;;;;2.77;1.80;;;25.90;45.80;;;;;;5004751;28;20026;-55
2022/05/12 12:00:01;;;;;;;3.42;1.70;;;26.00;46.30;;;;;;5004488;28;20405;-55
2022/05/12 12:02:32;;;;;;;2.70;1.63;;;26.00;46.40;;;;;;5005678;28;20057;-54
2022/05/12 12:05:03;;;;;;;3.75;1.65;;;26.00;46.40;;;;;;5005447;28;20033;-56
2022/05/12 12:07:32;;;;;;;3.08;1.50;;;26.00;46.40;;;;;;5004288;28;20486;-54
2022/05/12 12:10:04;;;;;;;2.78;1.75;;;26.00;46.50;;;;;;5005567;28;20034;-55
2022/05/12 12:12:45;;;;;;;2.30;1.40;;;26.00;46.50;;;;;;4986510;28;20034;-57
2022/05/12 12:15:30;;;;;;;2.60;1.70;;;26.10;46.70;;;;;;5005131;28;20084;-57
2022/05/12 12:17:57;;;;;;;2.40;1.50;;;26.00;46.70;;;;;;5005131;28;20041;-56
2022/05/12 12:20:29;;;;;;;2.60;1.65;;;26.10;46.80;;;;;;5005669;28;20026;-56
2022/05/12 12:23:28;;;;;;;3.53;1.77;;;26.10;46.80;;;;;;5005244;28;20022;-54
2022/05/12 12:26:05;;;;;;;2.72;1.58;;;26.10;46.80;;;;;;5004527;28;20104;-55
2022/05/12 12:29:04;;;;;;;2.65;1.58;;;26.10;46.90;;;;;;5005053;28;20022;-55
2022/05/12 12:31:40;;;;;;;3.28;1.80;;;26.10;46.90;;;;;;5004833;28;20097;-56
2022/05/12 12:34:15;;;;;;;2.47;1.70;;;26.10;46.80;;;;;;5004694;28;20030;-55
2022/05/12 12:36:56;;;;;;;2.75;1.55;;;26.10;46.80;;;;;;5004555;28;20156;-55
2022/05/12 12:39:40;;;;;;;2.22;1.30;;;26.20;46.80;;;;;;5004683;28;20018;-55
2022/05/12 12:42:27;;;;;;;2.30;1.25;;;26.20;46.90;;;;;;5004492;28;20109;-55
2022/05/12 12:44:59;;;;;;;3.15;1.85;;;26.20;46.90;;;;;;5003449;28;20461;-55
2022/05/12 12:47:44;;;;;;;2.78;1.55;;;26.20;46.90;;;;;;5004414;28;20084;-57
2022/05/12 12:50:28;;;;;;;2.95;1.60;;;26.20;47.00;;;;;;5005010;28;20038;-55
2022/05/12 12:52:56;;;;;;;3.78;1.48;;;26.20;47.80;;;;;;5005142;28;20244;-55
2022/05/12 12:58:48;;;;;;;2.58;1.58;;;26.30;47.40;;;;;;5005003;28;20113;-55
2022/05/12 13:01:17;;;;;;;2.83;1.60;;;26.30;47.50;;;;;;5005006;28;20034;-56
2022/05/12 13:03:54;;;;;;;2.92;1.70;;;26.30;47.50;;;;;;5004809;28;20069;-55
2022/05/12 13:06:30;;;;;;;2.58;1.52;;;26.30;47.40;;;;;;5003039;28;20041;-57
2022/05/12 13:09:02;;;;;;;3.15;1.67;;;26.30;47.50;;;;;;5004956;28;20161;-54
2022/05/12 13:11:28;;;;;;;3.05;1.70;;;26.30;47.50;;;;;;5003905;28;20693;-55
2022/05/12 13:13:56;;;;;;;2.88;1.70;;;26.40;47.50;;;;;;5005104;28;20133;-57
2022/05/12 13:16:25;;;;;;;3.22;2.00;;;26.40;47.50;;;;;;5004559;28;20552;-55
2022/05/12 13:18:53;;;;;;;4.10;1.95;;;26.40;47.40;;;;;;5004560;28;20251;-54
2022/05/12 13:21:43;;;;;;;3.05;1.90;;;26.40;47.40;;;;;;5004818;28;20026;-54
2022/05/12 13:24:27;;;;;;;3.50;1.90;;;26.40;47.30;;;;;;5004964;28;20061;-55
2022/05/12 13:26:58;;;;;;;3.78;1.95;;;26.40;47.30;;;;;;5004224;28;20030;-56
2022/05/12 13:29:42;;;;;;;3.55;2.00;;;26.40;47.30;;;;;;5004857;28;20445;-56
2022/05/12 13:32:13;;;;;;;4.10;2.13;;;26.40;47.30;;;;;;5005124;28;20033;-54
2022/05/12 13:34:39;;;;;;;3.60;2.13;;;26.40;47.30;;;;;;5004978;28;20018;-54